sensor_id;sensor_type;location;lat;lon;timestamp;temperature;humidity
29413;DHT22;16389;50.126;8.450;2024-03-23T00:55:34;8.10;99.90
29413;DHT22;16389;50.126;8.450;2024-03-23T00:58:00;8.20;99.90
29413;DHT22;16389;50.126;8.450;2024-03-23T01:00:28;8.30;99.90
29413;DHT22;16389;50.126;8.450;2024-03-23T01:02:54;8.40;99.90
29413;DHT22;16389;50.126;8.450;2024-03-23T01:05:19;8.40;99.90
29413;DHT22;16389;50.126;8.450;2024-03-23T01:07:45;8.40;99.90
29413;DHT22;16389;50.126;8.450;2024-03-23T01:10:11;8.30;99.90
29413;DHT22;16389;50.126;8.450;2024-03-23T01:12:36;8.30;99.90
29413;DHT22;16389;50.126;8.450;2024-03-23T01:15:02;8.20;99.90
29413;DHT22;16389;50.126;8.450;2024-03-23T01:17:28;8.30;99.90
29413;DHT22;16389;50.126;8.450;2024-03-23T01:19:53;8.40;99.90
29413;DHT22;16389;50.126;8.450;2024-03-23T01:22:19;8.40;99.90
29413;DHT22;16389;50.126;8.450;2024-03-23T01:24:45;8.40;99.90
29413;DHT22;16389;50.126;8.450;2024-03-23T01:27:10;8.40;99.90
29413;DHT22;16389;50.126;8.450;2024-03-23T01:29:36;8.40;99.90
29413;DHT22;16389;50.126;8.450;2024-03-23T01:32:01;8.40;99.90
29413;DHT22;16389;50.126;8.450;2024-03-23T01:34:27;8.40;99.90
29413;DHT22;16389;50.126;8.450;2024-03-23T01:36:53;8.40;99.90
29413;DHT22;16389;50.126;8.450;2024-03-23T01:39:19;8.30;99.90
29413;DHT22;16389;50.126;8.450;2024-03-23T01:41:44;8.20;99.90
29413;DHT22;16389;50.126;8.450;2024-03-23T01:44:10;8.10;99.90
29413;DHT22;16389;50.126;8.450;2024-03-23T01:46:37;8.00;99.90
29413;DHT22;16389;50.126;8.450;2024-03-23T01:49:05;7.90;99.90
29413;DHT22;16389;50.126;8.450;2024-03-23T01:51:32;7.80;99.90
29413;DHT22;16389;50.126;8.450;2024-03-23T01:53:58;7.80;99.90
29413;DHT22;16389;50.126;8.450;2024-03-23T01:56:28;7.80;99.90
29413;DHT22;16389;50.126;8.450;2024-03-23T01:58:54;7.90;99.90
29413;DHT22;16389;50.126;8.450;2024-03-23T02:01:19;8.00;99.90
29413;DHT22;16389;50.126;8.450;2024-03-23T02:03:45;8.00;99.90
29413;DHT22;16389;50.126;8.450;2024-03-23T02:06:10;8.10;99.90
29413;DHT22;16389;50.126;8.450;2024-03-23T02:08:36;8.10;99.90
29413;DHT22;16389;50.126;8.450;2024-03-23T02:11:02;8.10;99.90
29413;DHT22;16389;50.126;8.450;2024-03-23T02:13:28;8.10;99.90
29413;DHT22;16389;50.126;8.450;2024-03-23T02:15:53;8.10;99.90
29413;DHT22;16389;50.126;8.450;2024-03-23T02:18:19;8.10;99.90
29413;DHT22;16389;50.126;8.450;2024-03-23T02:20:44;8.10;99.90
29413;DHT22;16389;50.126;8.450;2024-03-23T02:23:14;8.10;99.90
29413;DHT22;16389;50.126;8.450;2024-03-23T02:25:39;8.10;99.90
29413;DHT22;16389;50.126;8.450;2024-03-23T02:28:05;8.20;99.90
29413;DHT22;16389;50.126;8.450;2024-03-23T02:30:32;8.20;99.90
29413;DHT22;16389;50.126;8.450;2024-03-23T02:32:58;8.20;99.90
29413;DHT22;16389;50.126;8.450;2024-03-23T02:35:23;8.20;99.90
29413;DHT22;16389;50.126;8.450;2024-03-23T02:37:49;8.20;99.90
29413;DHT22;16389;50.126;8.450;2024-03-23T02:40:15;8.20;99.90
29413;DHT22;16389;50.126;8.450;2024-03-23T02:42:41;8.30;99.90
29413;DHT22;16389;50.126;8.450;2024-03-23T02:45:07;8.30;99.90
29413;DHT22;16389;50.126;8.450;2024-03-23T02:47:33;8.40;99.90
29413;DHT22;16389;50.126;8.450;2024-03-23T02:49:58;8.40;99.90
29413;DHT22;16389;50.126;8.450;2024-03-23T02:52:24;8.40;99.90
29413;DHT22;16389;50.126;8.450;2024-03-23T02:54:50;8.40;99.90
29413;DHT22;16389;50.126;8.450;2024-03-23T02:57:16;8.40;99.90
29413;DHT22;16389;50.126;8.450;2024-03-23T02:59:41;8.50;99.90
29413;DHT22;16389;50.126;8.450;2024-03-23T03:02:07;8.60;99.90
29413;DHT22;16389;50.126;8.450;2024-03-23T03:04:33;8.70;99.90
29413;DHT22;16389;50.126;8.450;2024-03-23T03:07:00;8.80;99.90
29413;DHT22;16389;50.126;8.450;2024-03-23T03:09:25;8.80;99.90
29413;DHT22;16389;50.126;8.450;2024-03-23T03:11:51;8.80;99.90
29413;DHT22;16389;50.126;8.450;2024-03-23T03:14:16;8.80;99.90
29413;DHT22;16389;50.126;8.450;2024-03-23T03:16:42;8.80;99.90
29413;DHT22;16389;50.126;8.450;2024-03-23T03:19:08;8.80;99.90
29413;DHT22;16389;50.126;8.450;2024-03-23T03:21:34;8.80;99.90
29413;DHT22;16389;50.126;8.450;2024-03-23T03:24:00;8.90;99.90
29413;DHT22;16389;50.126;8.450;2024-03-23T03:26:26;8.90;99.90
29413;DHT22;16389;50.126;8.450;2024-03-23T03:28:52;8.90;99.90
29413;DHT22;16389;50.126;8.450;2024-03-23T03:31:20;8.90;99.90
29413;DHT22;16389;50.126;8.450;2024-03-23T03:33:46;8.80;99.90
29413;DHT22;16389;50.126;8.450;2024-03-23T03:36:12;8.80;99.90
29413;DHT22;16389;50.126;8.450;2024-03-23T03:38:37;8.80;99.90
29413;DHT22;16389;50.126;8.450;2024-03-23T03:41:05;8.80;99.90
29413;DHT22;16389;50.126;8.450;2024-03-23T03:43:34;8.80;99.90
29413;DHT22;16389;50.126;8.450;2024-03-23T03:46:00;8.80;99.90
29413;DHT22;16389;50.126;8.450;2024-03-23T03:48:27;8.80;99.90
29413;DHT22;16389;50.126;8.450;2024-03-23T03:50:53;8.80;99.90
29413;DHT22;16389;50.126;8.450;2024-03-23T03:53:19;8.80;99.90
29413;DHT22;16389;50.126;8.450;2024-03-23T03:55:44;8.90;99.90
29413;DHT22;16389;50.126;8.450;2024-03-23T03:58:10;9.00;99.90
29413;DHT22;16389;50.126;8.450;2024-03-23T04:00:36;9.00;99.90
29413;DHT22;16389;50.126;8.450;2024-03-23T04:03:02;8.90;99.90
29413;DHT22;16389;50.126;8.450;2024-03-23T04:05:28;8.80;99.90
29413;DHT22;16389;50.126;8.450;2024-03-23T04:07:53;8.70;99.90
29413;DHT22;16389;50.126;8.450;2024-03-23T04:10:19;8.50;99.90
29413;DHT22;16389;50.126;8.450;2024-03-23T04:12:45;8.30;99.90
29413;DHT22;16389;50.126;8.450;2024-03-23T04:15:11;8.20;99.90
29413;DHT22;16389;50.126;8.450;2024-03-23T04:17:37;7.90;99.90
29413;DHT22;16389;50.126;8.450;2024-03-23T04:20:03;7.80;99.90
29413;DHT22;16389;50.126;8.450;2024-03-23T04:22:36;7.70;99.90
29413;DHT22;16389;50.126;8.450;2024-03-23T04:25:03;7.60;99.90
29413;DHT22;16389;50.126;8.450;2024-03-23T04:27:32;7.50;99.90
29413;DHT22;16389;50.126;8.450;2024-03-23T04:29:58;7.40;99.90
29413;DHT22;16389;50.126;8.450;2024-03-23T04:32:26;7.30;99.90
29413;DHT22;16389;50.126;8.450;2024-03-23T04:34:52;7.30;99.90
29413;DHT22;16389;50.126;8.450;2024-03-23T04:37:17;7.20;99.90
29413;DHT22;16389;50.126;8.450;2024-03-23T04:39:43;7.20;99.90
29413;DHT22;16389;50.126;8.450;2024-03-23T04:42:09;7.10;99.90
29413;DHT22;16389;50.126;8.450;2024-03-23T04:44:34;7.00;99.90
29413;DHT22;16389;50.126;8.450;2024-03-23T04:47:00;7.00;99.90
29413;DHT22;16389;50.126;8.450;2024-03-23T04:49:26;7.00;99.90
29413;DHT22;16389;50.126;8.450;2024-03-23T04:51:52;7.00;99.90
29413;DHT22;16389;50.126;8.450;2024-03-23T04:54:18;7.00;99.90
29413;DHT22;16389;50.126;8.450;2024-03-23T04:56:43;7.00;99.90
29413;DHT22;16389;50.126;8.450;2024-03-23T04:59:09;7.00;99.90
29413;DHT22;16389;50.126;8.450;2024-03-23T05:01:34;7.00;99.90
29413;DHT22;16389;50.126;8.450;2024-03-23T05:04:00;7.00;99.90
29413;DHT22;16389;50.126;8.450;2024-03-23T05:06:26;7.00;99.90
29413;DHT22;16389;50.126;8.450;2024-03-23T05:08:52;7.00;99.90
29413;DHT22;16389;50.126;8.450;2024-03-23T05:11:18;6.90;99.90
29413;DHT22;16389;50.126;8.450;2024-03-23T05:13:44;7.00;99.90
29413;DHT22;16389;50.126;8.450;2024-03-23T05:16:09;7.00;99.90
29413;DHT22;16389;50.126;8.450;2024-03-23T05:18:35;7.00;99.90
29413;DHT22;16389;50.126;8.450;2024-03-23T05:21:01;6.90;99.90
29413;DHT22;16389;50.126;8.450;2024-03-23T05:23:28;6.90;99.90
29413;DHT22;16389;50.126;8.450;2024-03-23T05:25:54;6.90;99.90
29413;DHT22;16389;50.126;8.450;2024-03-23T05:28:20;6.90;99.90
29413;DHT22;16389;50.126;8.450;2024-03-23T05:30:55;7.00;99.90
29413;DHT22;16389;50.126;8.450;2024-03-23T05:33:24;7.00;99.90
29413;DHT22;16389;50.126;8.450;2024-03-23T05:35:57;7.00;99.90
29413;DHT22;16389;50.126;8.450;2024-03-23T05:38:23;7.00;99.90
29413;DHT22;16389;50.126;8.450;2024-03-23T05:40:55;7.00;99.90
29413;DHT22;16389;50.126;8.450;2024-03-23T05:43:21;7.00;99.90
29413;DHT22;16389;50.126;8.450;2024-03-23T05:45:57;6.90;99.90
29413;DHT22;16389;50.126;8.450;2024-03-23T05:48:23;6.80;99.90
29413;DHT22;16389;50.126;8.450;2024-03-23T05:50:49;6.60;99.90
29413;DHT22;16389;50.126;8.450;2024-03-23T05:53:16;6.60;99.90
29413;DHT22;16389;50.126;8.450;2024-03-23T05:55:42;6.40;99.90
29413;DHT22;16389;50.126;8.450;2024-03-23T05:58:08;6.40;99.90
29413;DHT22;16389;50.126;8.450;2024-03-23T06:00:34;6.30;99.90
29413;DHT22;16389;50.126;8.450;2024-03-23T06:02:59;6.30;99.90
29413;DHT22;16389;50.126;8.450;2024-03-23T06:05:25;6.30;99.90
29413;DHT22;16389;50.126;8.450;2024-03-23T06:07:50;6.20;99.90
29413;DHT22;16389;50.126;8.450;2024-03-23T06:10:16;6.20;99.90
29413;DHT22;16389;50.126;8.450;2024-03-23T06:12:42;6.20;99.90
29413;DHT22;16389;50.126;8.450;2024-03-23T06:15:08;6.20;99.90
29413;DHT22;16389;50.126;8.450;2024-03-23T06:17:37;6.10;99.90
29413;DHT22;16389;50.126;8.450;2024-03-23T06:20:03;6.10;99.90
29413;DHT22;16389;50.126;8.450;2024-03-23T06:22:29;6.00;99.90
29413;DHT22;16389;50.126;8.450;2024-03-23T06:24:55;6.00;99.90
29413;DHT22;16389;50.126;8.450;2024-03-23T06:27:20;6.00;99.90
29413;DHT22;16389;50.126;8.450;2024-03-23T06:29:46;6.00;99.90
29413;DHT22;16389;50.126;8.450;2024-03-23T06:32:11;6.10;99.90
29413;DHT22;16389;50.126;8.450;2024-03-23T06:34:37;6.10;99.90
29413;DHT22;16389;50.126;8.450;2024-03-23T06:37:03;6.10;99.90
29413;DHT22;16389;50.126;8.450;2024-03-23T06:39:29;6.00;99.90
29413;DHT22;16389;50.126;8.450;2024-03-23T06:41:55;6.10;99.90
29413;DHT22;16389;50.126;8.450;2024-03-23T06:44:20;6.10;99.90
29413;DHT22;16389;50.126;8.450;2024-03-23T06:46:47;6.10;99.90
29413;DHT22;16389;50.126;8.450;2024-03-23T06:49:14;6.20;99.90
29413;DHT22;16389;50.126;8.450;2024-03-23T06:51:40;6.20;99.90
29413;DHT22;16389;50.126;8.450;2024-03-23T06:54:06;6.10;99.90
29413;DHT22;16389;50.126;8.450;2024-03-23T06:56:32;6.10;99.90
29413;DHT22;16389;50.126;8.450;2024-03-23T06:58:58;6.10;99.90
29413;DHT22;16389;50.126;8.450;2024-03-23T07:01:23;6.00;99.90
29413;DHT22;16389;50.126;8.450;2024-03-23T07:03:49;6.00;99.90
29413;DHT22;16389;50.126;8.450;2024-03-23T07:06:15;6.00;99.90
29413;DHT22;16389;50.126;8.450;2024-03-23T07:08:40;6.00;99.90
29413;DHT22;16389;50.126;8.450;2024-03-23T07:11:06;6.00;99.90
29413;DHT22;16389;50.126;8.450;2024-03-23T07:13:32;6.10;99.90
29413;DHT22;16389;50.126;8.450;2024-03-23T07:15:57;6.20;99.90
29413;DHT22;16389;50.126;8.450;2024-03-23T07:18:25;6.30;99.90
29413;DHT22;16389;50.126;8.450;2024-03-23T07:20:54;6.40;99.90
29413;DHT22;16389;50.126;8.450;2024-03-23T07:23:22;6.50;99.90
29413;DHT22;16389;50.126;8.450;2024-03-23T07:25:56;6.60;99.90
29413;DHT22;16389;50.126;8.450;2024-03-23T07:28:22;6.70;99.90
29413;DHT22;16389;50.126;8.450;2024-03-23T07:30:48;6.80;99.90
29413;DHT22;16389;50.126;8.450;2024-03-23T07:33:13;6.90;99.90
29413;DHT22;16389;50.126;8.450;2024-03-23T07:35:39;7.10;99.90
29413;DHT22;16389;50.126;8.450;2024-03-23T07:38:04;7.10;99.90
29413;DHT22;16389;50.126;8.450;2024-03-23T07:40:31;7.00;99.90
29413;DHT22;16389;50.126;8.450;2024-03-23T07:42:56;6.90;99.90
29413;DHT22;16389;50.126;8.450;2024-03-23T07:45:22;6.80;99.90
29413;DHT22;16389;50.126;8.450;2024-03-23T07:47:48;7.00;99.90
29413;DHT22;16389;50.126;8.450;2024-03-23T07:50:13;7.60;99.90
29413;DHT22;16389;50.126;8.450;2024-03-23T07:52:39;8.00;99.90
29413;DHT22;16389;50.126;8.450;2024-03-23T07:55:05;8.60;99.90
29413;DHT22;16389;50.126;8.450;2024-03-23T07:57:31;8.70;99.90
29413;DHT22;16389;50.126;8.450;2024-03-23T07:59:57;8.80;99.90
29413;DHT22;16389;50.126;8.450;2024-03-23T08:02:22;8.90;99.90
29413;DHT22;16389;50.126;8.450;2024-03-23T08:04:48;9.00;99.90
29413;DHT22;16389;50.126;8.450;2024-03-23T08:07:14;9.30;99.90
29413;DHT22;16389;50.126;8.450;2024-03-23T08:09:39;9.50;99.90
29413;DHT22;16389;50.126;8.450;2024-03-23T08:12:05;9.70;99.90
29413;DHT22;16389;50.126;8.450;2024-03-23T08:14:31;10.30;99.90
29413;DHT22;16389;50.126;8.450;2024-03-23T08:16:59;10.70;99.90
29413;DHT22;16389;50.126;8.450;2024-03-23T08:19:25;10.20;99.90
29413;DHT22;16389;50.126;8.450;2024-03-23T08:21:51;10.60;99.90
29413;DHT22;16389;50.126;8.450;2024-03-23T08:24:17;10.50;99.90
29413;DHT22;16389;50.126;8.450;2024-03-23T08:26:42;10.10;99.90
29413;DHT22;16389;50.126;8.450;2024-03-23T08:29:08;9.90;99.90
29413;DHT22;16389;50.126;8.450;2024-03-23T08:31:33;10.20;99.90
29413;DHT22;16389;50.126;8.450;2024-03-23T08:33:59;10.20;99.90
29413;DHT22;16389;50.126;8.450;2024-03-23T08:36:24;10.30;99.90
29413;DHT22;16389;50.126;8.450;2024-03-23T08:38:50;10.50;99.90
29413;DHT22;16389;50.126;8.450;2024-03-23T08:41:19;10.30;99.90
29413;DHT22;16389;50.126;8.450;2024-03-23T08:43:44;9.90;99.90
29413;DHT22;16389;50.126;8.450;2024-03-23T08:46:11;9.80;99.90
29413;DHT22;16389;50.126;8.450;2024-03-23T08:48:44;9.60;99.90
29413;DHT22;16389;50.126;8.450;2024-03-23T08:51:15;9.40;99.90
29413;DHT22;16389;50.126;8.450;2024-03-23T08:53:41;9.20;99.90
29413;DHT22;16389;50.126;8.450;2024-03-23T08:56:08;9.20;99.90
29413;DHT22;16389;50.126;8.450;2024-03-23T08:58:35;9.20;99.90
29413;DHT22;16389;50.126;8.450;2024-03-23T09:01:09;9.50;99.90
29413;DHT22;16389;50.126;8.450;2024-03-23T09:03:36;9.60;99.90
29413;DHT22;16389;50.126;8.450;2024-03-23T09:06:06;9.90;99.90
29413;DHT22;16389;50.126;8.450;2024-03-23T09:08:32;10.30;99.90
29413;DHT22;16389;50.126;8.450;2024-03-23T09:10:57;10.70;99.90
29413;DHT22;16389;50.126;8.450;2024-03-23T09:13:28;11.50;99.90
29413;DHT22;16389;50.126;8.450;2024-03-23T09:15:54;11.60;99.90
29413;DHT22;16389;50.126;8.450;2024-03-23T09:18:22;11.40;99.90
29413;DHT22;16389;50.126;8.450;2024-03-23T09:20:47;11.20;99.90
29413;DHT22;16389;50.126;8.450;2024-03-23T09:23:13;11.50;99.90
29413;DHT22;16389;50.126;8.450;2024-03-23T09:25:39;12.00;99.90
29413;DHT22;16389;50.126;8.450;2024-03-23T09:28:05;12.40;99.90
29413;DHT22;16389;50.126;8.450;2024-03-23T09:30:35;12.80;99.90
29413;DHT22;16389;50.126;8.450;2024-03-23T09:33:02;13.00;99.90
29413;DHT22;16389;50.126;8.450;2024-03-23T09:35:28;13.10;99.90
29413;DHT22;16389;50.126;8.450;2024-03-23T09:37:53;12.30;99.90
29413;DHT22;16389;50.126;8.450;2024-03-23T09:40:20;11.80;99.90
29413;DHT22;16389;50.126;8.450;2024-03-23T09:42:50;11.40;99.90
29413;DHT22;16389;50.126;8.450;2024-03-23T09:45:26;11.40;99.90
29413;DHT22;16389;50.126;8.450;2024-03-23T09:47:52;11.30;99.90
29413;DHT22;16389;50.126;8.450;2024-03-23T09:50:18;11.30;99.90
29413;DHT22;16389;50.126;8.450;2024-03-23T09:52:46;11.60;99.90
29413;DHT22;16389;50.126;8.450;2024-03-23T09:55:12;11.80;99.90
29413;DHT22;16389;50.126;8.450;2024-03-23T09:57:39;11.30;99.90
29413;DHT22;16389;50.126;8.450;2024-03-23T10:00:05;10.70;99.90
29413;DHT22;16389;50.126;8.450;2024-03-23T10:02:31;10.40;99.90
29413;DHT22;16389;50.126;8.450;2024-03-23T10:04:58;10.10;99.90
29413;DHT22;16389;50.126;8.450;2024-03-23T10:07:23;10.10;99.90
29413;DHT22;16389;50.126;8.450;2024-03-23T10:09:49;10.70;99.90
29413;DHT22;16389;50.126;8.450;2024-03-23T10:12:19;10.80;99.90
29413;DHT22;16389;50.126;8.450;2024-03-23T10:14:45;10.90;99.90
29413;DHT22;16389;50.126;8.450;2024-03-23T10:17:18;11.00;99.90
29413;DHT22;16389;50.126;8.450;2024-03-23T10:19:45;11.00;99.90
29413;DHT22;16389;50.126;8.450;2024-03-23T10:22:14;11.30;99.90
29413;DHT22;16389;50.126;8.450;2024-03-23T10:24:41;11.40;99.90
29413;DHT22;16389;50.126;8.450;2024-03-23T10:27:07;11.50;99.90
29413;DHT22;16389;50.126;8.450;2024-03-23T10:29:32;11.80;98.10
29413;DHT22;16389;50.126;8.450;2024-03-23T10:32:18;12.50;98.90
29413;DHT22;16389;50.126;8.450;2024-03-23T10:34:45;12.40;96.40
29413;DHT22;16389;50.126;8.450;2024-03-23T10:37:11;11.80;97.50
29413;DHT22;16389;50.126;8.450;2024-03-23T10:39:41;10.90;98.20
29413;DHT22;16389;50.126;8.450;2024-03-23T10:42:09;10.50;99.90
29413;DHT22;16389;50.126;8.450;2024-03-23T10:44:40;10.20;99.90
29413;DHT22;16389;50.126;8.450;2024-03-23T10:47:06;9.50;99.90
29413;DHT22;16389;50.126;8.450;2024-03-23T10:49:33;8.70;99.90
29413;DHT22;16389;50.126;8.450;2024-03-23T10:52:02;8.50;99.90
29413;DHT22;16389;50.126;8.450;2024-03-23T10:54:28;8.50;99.90
29413;DHT22;16389;50.126;8.450;2024-03-23T10:57:03;8.50;99.90
29413;DHT22;16389;50.126;8.450;2024-03-23T10:59:31;8.70;99.90
29413;DHT22;16389;50.126;8.450;2024-03-23T11:01:59;9.00;99.90
29413;DHT22;16389;50.126;8.450;2024-03-23T11:04:36;9.10;99.90
29413;DHT22;16389;50.126;8.450;2024-03-23T11:09:53;9.70;99.90
29413;DHT22;16389;50.126;8.450;2024-03-23T11:15:04;9.80;99.90
29413;DHT22;16389;50.126;8.450;2024-03-23T11:17:31;10.00;99.90
29413;DHT22;16389;50.126;8.450;2024-03-23T11:20:01;9.80;99.90
29413;DHT22;16389;50.126;8.450;2024-03-23T11:22:46;9.30;99.90
29413;DHT22;16389;50.126;8.450;2024-03-23T11:27:42;10.10;99.90
29413;DHT22;16389;50.126;8.450;2024-03-23T11:30:18;10.20;99.90
29413;DHT22;16389;50.126;8.450;2024-03-23T11:32:49;10.70;99.90
29413;DHT22;16389;50.126;8.450;2024-03-23T11:40:43;10.00;99.90
29413;DHT22;16389;50.126;8.450;2024-03-23T11:43:09;10.20;99.90
29413;DHT22;16389;50.126;8.450;2024-03-23T11:45:38;10.20;99.90
29413;DHT22;16389;50.126;8.450;2024-03-23T11:48:12;11.50;99.90
29413;DHT22;16389;50.126;8.450;2024-03-23T11:50:42;13.90;99.90
29413;DHT22;16389;50.126;8.450;2024-03-23T11:53:15;17.20;93.20
29413;DHT22;16389;50.126;8.450;2024-03-23T11:56:02;19.70;84.00
29413;DHT22;16389;50.126;8.450;2024-03-23T11:58:28;22.20;72.70
29413;DHT22;16389;50.126;8.450;2024-03-23T12:01:00;23.50;67.40
29413;DHT22;16389;50.126;8.450;2024-03-23T12:03:28;24.20;62.10
29413;DHT22;16389;50.126;8.450;2024-03-23T12:05:58;22.30;61.40
29413;DHT22;16389;50.126;8.450;2024-03-23T12:08:32;23.40;62.50
29413;DHT22;16389;50.126;8.450;2024-03-23T12:11:17;24.70;58.00
29413;DHT22;16389;50.126;8.450;2024-03-23T12:13:46;25.20;56.40
29413;DHT22;16389;50.126;8.450;2024-03-23T12:16:18;24.00;55.00
29413;DHT22;16389;50.126;8.450;2024-03-23T12:18:49;22.70;59.00
29413;DHT22;16389;50.126;8.450;2024-03-23T12:21:16;24.20;56.80
29413;DHT22;16389;50.126;8.450;2024-03-23T12:23:43;24.70;57.10
29413;DHT22;16389;50.126;8.450;2024-03-23T12:26:12;26.40;52.20
29413;DHT22;16389;50.126;8.450;2024-03-23T12:28:38;27.60;53.40
29413;DHT22;16389;50.126;8.450;2024-03-23T12:31:04;26.30;51.00
29413;DHT22;16389;50.126;8.450;2024-03-23T12:33:31;24.40;51.00
29413;DHT22;16389;50.126;8.450;2024-03-23T12:35:56;20.90;57.00
29413;DHT22;16389;50.126;8.450;2024-03-23T12:38:22;19.20;60.60
29413;DHT22;16389;50.126;8.450;2024-03-23T12:40:48;17.80;66.50
29413;DHT22;16389;50.126;8.450;2024-03-23T12:43:14;18.20;68.50
29413;DHT22;16389;50.126;8.450;2024-03-23T12:45:40;20.10;65.00
29413;DHT22;16389;50.126;8.450;2024-03-23T12:48:06;19.90;61.00
29413;DHT22;16389;50.126;8.450;2024-03-23T12:50:32;19.10;62.70
29413;DHT22;16389;50.126;8.450;2024-03-23T12:52:58;17.80;67.50
29413;DHT22;16389;50.126;8.450;2024-03-23T12:55:23;16.90;69.70
29413;DHT22;16389;50.126;8.450;2024-03-23T12:57:49;16.00;73.20
29413;DHT22;16389;50.126;8.450;2024-03-23T13:00:15;14.70;75.00
29413;DHT22;16389;50.126;8.450;2024-03-23T13:02:44;13.70;75.30
29413;DHT22;16389;50.126;8.450;2024-03-23T13:05:10;12.40;84.90
29413;DHT22;16389;50.126;8.450;2024-03-23T13:07:36;11.40;94.70
29413;DHT22;16389;50.126;8.450;2024-03-23T13:10:03;10.60;99.90
29413;DHT22;16389;50.126;8.450;2024-03-23T13:12:29;9.70;99.90
29413;DHT22;16389;50.126;8.450;2024-03-23T13:14:58;9.10;99.90
29413;DHT22;16389;50.126;8.450;2024-03-23T13:17:24;8.00;99.90
29413;DHT22;16389;50.126;8.450;2024-03-23T13:19:50;7.30;99.90
29413;DHT22;16389;50.126;8.450;2024-03-23T13:22:16;7.20;99.90
29413;DHT22;16389;50.126;8.450;2024-03-23T13:24:41;8.00;99.90
29413;DHT22;16389;50.126;8.450;2024-03-23T13:27:08;8.90;99.90
29413;DHT22;16389;50.126;8.450;2024-03-23T13:29:34;9.40;99.90
29413;DHT22;16389;50.126;8.450;2024-03-23T13:32:01;9.80;99.90
29413;DHT22;16389;50.126;8.450;2024-03-23T13:39:19;9.90;99.90
29413;DHT22;16389;50.126;8.450;2024-03-23T13:41:46;21.20;94.40
29413;DHT22;16389;50.126;8.450;2024-03-23T13:44:13;22.80;88.30
29413;DHT22;16389;50.126;8.450;2024-03-23T13:46:40;25.40;71.90
29413;DHT22;16389;50.126;8.450;2024-03-23T13:49:29;27.90;65.80
29413;DHT22;16389;50.126;8.450;2024-03-23T13:51:56;28.80;54.90
29413;DHT22;16389;50.126;8.450;2024-03-23T13:54:28;29.50;54.30
29413;DHT22;16389;50.126;8.450;2024-03-23T13:56:55;31.40;52.80
29413;DHT22;16389;50.126;8.450;2024-03-23T13:59:22;29.10;53.40
29413;DHT22;16389;50.126;8.450;2024-03-23T14:06:46;27.20;53.40
29413;DHT22;16389;50.126;8.450;2024-03-23T14:09:12;24.30;55.90
29413;DHT22;16389;50.126;8.450;2024-03-23T14:11:38;19.10;63.60
29413;DHT22;16389;50.126;8.450;2024-03-23T14:14:04;16.10;74.30
29413;DHT22;16389;50.126;8.450;2024-03-23T14:16:33;14.00;79.50
29413;DHT22;16389;50.126;8.450;2024-03-23T14:18:59;15.20;82.70
29413;DHT22;16389;50.126;8.450;2024-03-23T14:21:25;20.00;71.10
29413;DHT22;16389;50.126;8.450;2024-03-23T14:23:51;24.10;58.10
29413;DHT22;16389;50.126;8.450;2024-03-23T14:26:17;26.40;54.20
29413;DHT22;16389;50.126;8.450;2024-03-23T14:28:42;26.50;52.50
29413;DHT22;16389;50.126;8.450;2024-03-23T14:31:08;26.30;51.00
29413;DHT22;16389;50.126;8.450;2024-03-23T14:33:37;27.80;50.50
29413;DHT22;16389;50.126;8.450;2024-03-23T14:36:03;28.90;48.70
29413;DHT22;16389;50.126;8.450;2024-03-23T14:38:29;30.50;47.30
29413;DHT22;16389;50.126;8.450;2024-03-23T14:41:01;30.50;46.00
29413;DHT22;16389;50.126;8.450;2024-03-23T14:43:28;30.80;45.20
29413;DHT22;16389;50.126;8.450;2024-03-23T14:46:08;30.80;45.20
29413;DHT22;16389;50.126;8.450;2024-03-23T14:48:34;29.50;43.00
29413;DHT22;16389;50.126;8.450;2024-03-23T14:51:00;25.90;45.80
29413;DHT22;16389;50.126;8.450;2024-03-23T14:53:29;24.60;48.80
29413;DHT22;16389;50.126;8.450;2024-03-23T14:55:56;23.30;51.40
29413;DHT22;16389;50.126;8.450;2024-03-23T14:58:21;19.40;55.10
29413;DHT22;16389;50.126;8.450;2024-03-23T15:00:51;16.60;62.20
29413;DHT22;16389;50.126;8.450;2024-03-23T15:03:19;18.40;66.10
29413;DHT22;16389;50.126;8.450;2024-03-23T15:05:58;21.60;56.70
29413;DHT22;16389;50.126;8.450;2024-03-23T15:08:25;20.30;54.90
29413;DHT22;16389;50.126;8.450;2024-03-23T15:10:53;18.30;58.10
29413;DHT22;16389;50.126;8.450;2024-03-23T15:13:18;16.50;63.00
29413;DHT22;16389;50.126;8.450;2024-03-23T15:15:44;14.70;66.00
29413;DHT22;16389;50.126;8.450;2024-03-23T15:18:16;13.00;71.10
29413;DHT22;16389;50.126;8.450;2024-03-23T15:20:54;12.20;79.70
29413;DHT22;16389;50.126;8.450;2024-03-23T15:23:20;11.80;83.10
29413;DHT22;16389;50.126;8.450;2024-03-23T15:25:46;11.10;83.00
29413;DHT22;16389;50.126;8.450;2024-03-23T15:28:11;10.70;89.80
29413;DHT22;16389;50.126;8.450;2024-03-23T15:30:37;10.00;97.00
29413;DHT22;16389;50.126;8.450;2024-03-23T15:33:03;8.80;99.90
29413;DHT22;16389;50.126;8.450;2024-03-23T15:35:29;8.20;99.90
29413;DHT22;16389;50.126;8.450;2024-03-23T15:37:54;7.60;99.90
29413;DHT22;16389;50.126;8.450;2024-03-23T15:40:20;7.20;99.90
29413;DHT22;16389;50.126;8.450;2024-03-23T15:42:45;6.90;99.90
29413;DHT22;16389;50.126;8.450;2024-03-23T15:45:11;6.70;99.90
29413;DHT22;16389;50.126;8.450;2024-03-23T15:47:36;6.50;99.90
29413;DHT22;16389;50.126;8.450;2024-03-23T15:50:02;6.90;99.90
29413;DHT22;16389;50.126;8.450;2024-03-23T15:52:33;8.80;99.90
29413;DHT22;16389;50.126;8.450;2024-03-23T15:55:00;9.80;99.90
29413;DHT22;16389;50.126;8.450;2024-03-23T15:57:25;10.90;99.90
29413;DHT22;16389;50.126;8.450;2024-03-23T15:59:52;11.40;99.90
29413;DHT22;16389;50.126;8.450;2024-03-23T16:02:18;11.40;99.90
29413;DHT22;16389;50.126;8.450;2024-03-23T16:07:11;10.20;99.90
29413;DHT22;16389;50.126;8.450;2024-03-23T16:09:36;9.30;99.90
29413;DHT22;16389;50.126;8.450;2024-03-23T16:12:03;9.50;99.90
29413;DHT22;16389;50.126;8.450;2024-03-23T16:14:29;10.30;99.90
29413;DHT22;16389;50.126;8.450;2024-03-23T16:16:57;10.50;99.90
29413;DHT22;16389;50.126;8.450;2024-03-23T16:19:22;10.60;99.90
29413;DHT22;16389;50.126;8.450;2024-03-23T16:21:48;10.50;99.90
29413;DHT22;16389;50.126;8.450;2024-03-23T16:24:14;10.20;99.90
29413;DHT22;16389;50.126;8.450;2024-03-23T16:26:39;10.00;99.90
29413;DHT22;16389;50.126;8.450;2024-03-23T16:29:05;9.50;99.90
29413;DHT22;16389;50.126;8.450;2024-03-23T16:31:31;9.10;99.90
29413;DHT22;16389;50.126;8.450;2024-03-23T16:33:57;8.80;99.90
29413;DHT22;16389;50.126;8.450;2024-03-23T16:36:22;8.70;99.90
29413;DHT22;16389;50.126;8.450;2024-03-23T16:38:48;8.60;99.90
29413;DHT22;16389;50.126;8.450;2024-03-23T16:41:14;8.50;99.90
29413;DHT22;16389;50.126;8.450;2024-03-23T16:43:43;8.50;99.90
29413;DHT22;16389;50.126;8.450;2024-03-23T16:46:10;8.50;99.90
29413;DHT22;16389;50.126;8.450;2024-03-23T16:48:37;8.40;99.90
29413;DHT22;16389;50.126;8.450;2024-03-23T16:51:06;8.40;99.90
29413;DHT22;16389;50.126;8.450;2024-03-23T16:53:33;8.50;99.90
29413;DHT22;16389;50.126;8.450;2024-03-23T16:56:00;8.40;99.90
29413;DHT22;16389;50.126;8.450;2024-03-23T16:58:27;8.30;99.90